Sachse, Texas
Current Conditions -  °F | °C
As of 2:35 AM on Saturday 22 Nov 2014 (Local Time) from KF46 Reporting Station
Thunderstorm Thunderstorm  
Wind Chill: 60°   Ceiling: 1000
Heat Index: 60°   Visibility: 10mi
Dew Point: 57°   Wind: 12mph
Humidity: 91%   Direction: 150°SSE
Pressure: 30.09"   Gusts: 17mph
Location:  32.9674°N, 96.5785°W
Report Text: KF46 220835Z AUTO 15010G15KT 10SM VCTS OVC010 16/14 A3009 RMK AO2 LTG DSNT W AND NW T01550140
Loading
Personal Weather Stations






























Interactive Weather Map New forecast layout! Learn more

10-Day Weather Forecast

Advertisements
Track Severe Weather on mobile